| time (UTC) | temp F | wind direction | speed knots | gust knots | rain 1hr in | rain 24hr in | rain mn in | humidity % | barometer mb |
| 20260906184004 | 67 | 271 | 2.6 | 7.0 | 0.02 | 0.35 | 0.35 | 91 | 1019.5 |
| 20260906183004 | 67 | 234 | 5.2 | 10.4 | 0.04 | 0.35 | 0.35 | 90 | 1020.3 |
| 20260906182005 | 69 | 249 | 6.1 | 10.4 | 0.04 | 0.34 | 0.34 | 87 | 1020.7 |
| 20260906181005 | 69 | 193 | 2.6 | 11.3 | 0.06 | 0.33 | 0.33 | 88 | 1020.9 |
| 20260906175004 | 67 | 271 | 3.5 | 8.7 | 0.26 | 0.33 | 0.33 | 92 | 1020.3 |
| 20260906174005 | 67 | 272 | 5.2 | 10.4 | 0.30 | 0.33 | 0.33 | 92 | 1020.6 |
| 20260906173004 | 67 | 174 | 10.4 | 17.4 | 0.31 | 0.31 | 0.31 | 92 | 1019.3 |
| 20260906172005 | 67 | 179 | 8.7 | 15.6 | 0.30 | 0.30 | 0.30 | 93 | 1019.3 |
| 20260906171004 | 68 | 159 | 8.7 | 13.0 | 0.27 | 0.27 | 0.27 | 93 | 1019.1 |
| 20260906170004 | 68 | 139 | 8.7 | 17.4 | 0.15 | 0.15 | 0.15 | 91 | 1018.8 |
| 20260906164004 | 68 | 166 | 8.7 | 15.6 | 0.03 | 0.03 | 0.03 | 88 | 1019.8 |
| 20260906163005 | 69 | 158 | 12.2 | 26.1 | 0.00 | 0.00 | 0.00 | 83 | 1019.9 |
| 20260906162005 | 69 | 154 | 11.3 | 22.6 | 0.00 | 0.00 | 0.00 | 81 | 1019.5 |
| 20260906161005 | 69 | 127 | 15.6 | 26.9 | 0.00 | 0.00 | 0.00 | 83 | 1019.0 |
| 20260906160005 | 70 | 123 | 14.8 | 26.9 | 0.00 | 0.00 | 0.00 | 88 | 1019.1 |
| 20260906155004 | 72 | 122 | 13.0 | 19.1 | 0.00 | 0.00 | 0.00 | 95 | 1019.0 |
| 20260906154004 | 73 | 123 | 7.8 | 13.0 | 0.00 | 0.01 | 0.00 | 95 | 1018.5 |
| 20260906153004 | 73 | 141 | 7.8 | 12.2 | 0.00 | 0.01 | 0.00 | 95 | 1018.3 |
| 20260906152005 | 73 | 152 | 7.8 | 10.4 | 0.00 | 0.03 | 0.00 | 95 | 1017.7 |
| 20260906151004 | 73 | 155 | 5.2 | 10.4 | 0.00 | 0.05 | 0.00 | 96 | 1017.4 |
| 20260906150005 | 73 | 156 | 6.1 | 10.4 | 0.00 | 0.09 | 0.00 | 96 | 1017.4 |
| 20260906145004 | 73 | 158 | 6.1 | 11.3 | 0.00 | 0.10 | 0.00 | 96 | 1017.5 |
| 20260906144005 | 73 | 168 | 7.0 | 10.4 | 0.00 | 0.11 | 0.00 | 96 | 1017.7 |
| 20260906143005 | 72 | 165 | 6.1 | 12.2 | 0.00 | 0.11 | 0.00 | 96 | 1017.9 |
| 20260906142004 | 72 | 164 | 7.8 | 11.3 | 0.00 | 0.11 | 0.00 | 96 | 1017.9 |
| 20260906141005 | 72 | 163 | 5.2 | 11.3 | 0.00 | 0.12 | 0.00 | 96 | 1017.9 |
| 20260906140004 | 72 | 176 | 5.2 | 10.4 | 0.00 | 0.12 | 0.00 | 96 | 1017.9 |
| 20260906134004 | 72 | 185 | 5.2 | 10.4 | 0.00 | 0.14 | 0.00 | 96 | 1017.6 |
| 20260906133004 | 72 | 173 | 5.2 | 10.4 | 0.00 | 0.15 | 0.00 | 96 | 1017.5 |
| 20260906132004 | 72 | 172 | 6.1 | 10.4 | 0.00 | 0.15 | 0.00 | 96 | 1017.5 |
| 20260906131004 | 72 | 177 | 6.1 | 8.7 | 0.00 | 0.16 | 0.00 | 96 | 1017.5 |
| 20260906130004 | 72 | 169 | 4.3 | 8.7 | 0.00 | 0.16 | 0.00 | 97 | 1017.6 |
| 20260906125004 | 71 | 171 | 3.5 | 8.7 | 0.00 | 0.16 | 0.00 | 96 | 1017.6 |
| 20260906124005 | 71 | 177 | 4.3 | 7.8 | 0.00 | 0.16 | 0.00 | 96 | 1017.5 |
| 20260906123004 | 71 | 185 | 5.2 | 10.4 | 0.00 | 0.16 | 0.00 | 96 | 1017.6 |
| 20260906122004 | 71 | 165 | 4.3 | 11.3 | 0.00 | 0.16 | 0.00 | 96 | 1017.6 |
| 20260906120005 | 71 | 175 | 4.3 | 10.4 | 0.00 | 0.16 | 0.00 | 96 | 1017.3 |
| 20260906115004 | 71 | 170 | 6.1 | 8.7 | 0.00 | 0.16 | 0.00 | 96 | 1017.1 |
| 20260906114004 | 72 | 159 | 6.1 | 10.4 | 0.00 | 0.16 | 0.00 | 96 | 1017.1 |
| 20260906113004 | 72 | 164 | 5.2 | 13.0 | 0.00 | 0.16 | 0.00 | 96 | 1016.8 |
| 20260906112004 | 72 | 165 | 5.2 | 8.7 | 0.00 | 0.16 | 0.00 | 96 | 1016.8 |
| 20260906111005 | 72 | 149 | 7.0 | 13.0 | 0.00 | 0.16 | 0.00 | 96 | 1016.9 |
| 20260906110005 | 72 | 167 | 7.8 | 13.0 | 0.00 | 0.16 | 0.00 | 96 | 1016.9 |
| 20260906105005 | 72 | 168 | 6.1 | 10.4 | 0.00 | 0.16 | 0.00 | 96 | 1016.7 |
| 20260906104004 | 72 | 164 | 7.8 | 11.3 | 0.00 | 0.16 | 0.00 | 96 | 1016.8 |
| 20260906103004 | 72 | 159 | 7.0 | 10.4 | 0.00 | 0.16 | 0.00 | 96 | 1017.0 |
| 20260906102005 | 72 | 169 | 5.2 | 11.3 | 0.00 | 0.16 | 0.00 | 96 | 1017.0 |
| 20260906101004 | 72 | 162 | 6.1 | 10.4 | 0.00 | 0.16 | 0.00 | 96 | 1017.1 |
| 20260906100005 | 72 | 163 | 6.1 | 10.4 | 0.00 | 0.16 | 0.00 | 96 | 1017.2 |
| 20260906095004 | 72 | 166 | 5.2 | 12.2 | 0.00 | 0.16 | 0.00 | 96 | 1017.1 |
| 20260906094004 | 72 | 164 | 5.2 | 10.4 | 0.00 | 0.16 | 0.00 | 96 | 1017.1 |
| 20260906092004 | 72 | 169 | 4.3 | 10.4 | 0.00 | 0.16 | 0.00 | 96 | 1016.9 |
| 20260906090005 | 72 | 173 | 8.7 | 13.9 | 0.00 | 0.16 | 0.00 | 96 | 1016.7 |
| 20260906085005 | 72 | 169 | 6.1 | 11.3 | 0.00 | 0.16 | 0.00 | 96 | 1016.6 |
| 20260906084004 | 72 | 165 | 6.1 | 10.4 | 0.00 | 0.16 | 0.00 | 96 | 1016.6 |
| 20260906083004 | 72 | 165 | 5.2 | 11.3 | 0.00 | 0.16 | 0.00 | 96 | 1016.6 |
| 20260906082005 | 72 | 150 | 5.2 | 11.3 | 0.00 | 0.16 | 0.00 | 96 | 1016.6 |
| 20260906081004 | 72 | 158 | 6.1 | 11.3 | 0.00 | 0.16 | 0.00 | 96 | 1016.6 |
| 20260906080004 | 72 | 162 | 5.2 | 10.4 | 0.00 | 0.16 | 0.00 | 96 | 1016.7 |
| 20260906075005 | 72 | 155 | 5.2 | 10.4 | 0.00 | 0.16 | 0.00 | 96 | 1016.5 |
| 20260906074005 | 72 | 152 | 6.1 | 8.7 | 0.00 | 0.16 | 0.00 | 96 | 1016.5 |
| 20260906073004 | 72 | 150 | 5.2 | 8.7 | 0.00 | 0.16 | 0.00 | 96 | 1016.5 |
| 20260906072005 | 72 | 152 | 6.1 | 7.8 | 0.00 | 0.16 | 0.00 | 96 | 1016.5 |
| 20260906071004 | 73 | 152 | 6.1 | 10.4 | 0.00 | 0.16 | 0.00 | 96 | 1016.6 |
| 20260906070004 | 73 | 155 | 6.1 | 8.7 | 0.00 | 0.16 | 0.00 | 96 | 1016.7 |
| 20260906065005 | 73 | 148 | 6.1 | 13.0 | 0.00 | 0.16 | 0.00 | 96 | 1016.7 |
| 20260906064005 | 73 | 153 | 7.8 | 13.0 | 0.00 | 0.16 | 0.00 | 96 | 1016.9 |
| 20260906063005 | 73 | 150 | 7.8 | 13.0 | 0.00 | 0.16 | 0.00 | 95 | 1016.9 |
| 20260906062004 | 73 | 153 | 6.1 | 10.4 | 0.00 | 0.16 | 0.00 | 95 | 1016.8 |
| 20260906055005 | 73 | 151 | 4.3 | 7.8 | 0.00 | 0.16 | 0.00 | 95 | 1016.8 |
| 20260906054004 | 73 | 146 | 4.3 | 7.8 | 0.00 | 0.16 | 0.00 | 95 | 1016.7 |
| 20260906053005 | 74 | 150 | 5.2 | 7.8 | 0.00 | 0.16 | 0.00 | 95 | 1016.6 |
| 20260906052005 | 74 | 145 | 3.5 | 7.0 | 0.00 | 0.16 | 0.00 | 95 | 1016.6 |
| 20260906050005 | 74 | 156 | 2.6 | 7.0 | 0.00 | 0.16 | 0.00 | 95 | 1016.6 |
| 20260906045005 | 74 | 159 | 3.5 | 7.0 | 0.00 | 0.16 | 0.16 | 95 | 1016.7 |
| 20260906044004 | 74 | 156 | 3.5 | 6.1 | 0.00 | 0.16 | 0.16 | 95 | 1016.7 |
| 20260906043004 | 74 | 154 | 3.5 | 6.1 | 0.00 | 0.16 | 0.16 | 94 | 1016.6 |
| 20260906042004 | 74 | 151 | 3.5 | 7.0 | 0.00 | 0.16 | 0.16 | 94 | 1016.7 |
| 20260906041004 | 74 | 141 | 2.6 | 5.2 | 0.00 | 0.16 | 0.16 | 94 | 1016.6 |
| 20260906040005 | 74 | 139 | 2.6 | 7.0 | 0.00 | 0.16 | 0.16 | 94 | 1016.5 |
| 20260906035004 | 74 | 152 | 4.3 | 7.0 | 0.00 | 0.16 | 0.16 | 94 | 1016.4 |
| 20260906034004 | 74 | 148 | 3.5 | 6.1 | 0.00 | 0.16 | 0.16 | 94 | 1016.4 |
| 20260906033005 | 74 | 148 | 2.6 | 5.2 | 0.00 | 0.16 | 0.16 | 94 | 1016.4 |
| 20260906032004 | 74 | 143 | 2.6 | 7.0 | 0.00 | 0.16 | 0.16 | 94 | 1016.4 |
| 20260906031004 | 74 | 142 | 2.6 | 5.2 | 0.00 | 0.16 | 0.16 | 93 | 1016.7 |
| 20260906030004 | 74 | 131 | 2.6 | 2.6 | 0.00 | 0.16 | 0.16 | 93 | 1016.7 |
| 20260906025004 | 74 | 132 | 2.6 | 6.1 | 0.00 | 0.16 | 0.16 | 92 | 1016.7 |
| 20260906024004 | 74 | 117 | 2.6 | 4.3 | 0.00 | 0.16 | 0.16 | 92 | 1016.7 |
| 20260906023005 | 74 | 121 | 1.7 | 4.3 | 0.00 | 0.16 | 0.16 | 91 | 1016.5 |
| 20260906022005 | 74 | 117 | 2.6 | 5.2 | 0.00 | 0.16 | 0.16 | 91 | 1016.4 |
| 20260906021004 | 74 | 123 | 1.7 | 2.6 | 0.00 | 0.16 | 0.16 | 91 | 1016.4 |
| 20260906020004 | 74 | 126 | 2.6 | 5.2 | 0.00 | 0.16 | 0.16 | 90 | 1016.2 |
| 20260906014005 | 75 | 113 | 4.3 | 6.1 | 0.00 | 0.16 | 0.16 | 89 | 1016.2 |
| 20260906012004 | 75 | 131 | 1.7 | 2.6 | 0.00 | 0.16 | 0.16 | 88 | 1015.9 |
| 20260906011005 | 76 | 123 | 1.7 | 2.6 | 0.00 | 0.16 | 0.16 | 88 | 1015.9 |
| 20260906005004 | 76 | 136 | 2.6 | 6.1 | 0.00 | 0.16 | 0.16 | 86 | 1015.5 |
| 20260906003004 | 78 | 137 | 2.6 | 7.0 | 0.00 | 0.16 | 0.16 | 83 | 1015.4 |
| 20260906002005 | 79 | 142 | 3.5 | 7.8 | 0.00 | 0.16 | 0.16 | 80 | 1015.6 |
| 20260906001004 | 79 | 145 | 4.3 | 7.0 | 0.00 | 0.16 | 0.16 | 79 | 1015.7 |
| 20260905235004 | 80 | 145 | 6.1 | 10.4 | 0.00 | 0.16 | 0.16 | 76 | 1015.8 |
| 20260905234004 | 81 | 144 | 6.1 | 11.3 | 0.00 | 0.16 | 0.16 | 75 | 1015.6 |
| 20260905233005 | 82 | 149 | 6.1 | 10.4 | 0.00 | 0.16 | 0.16 | 74 | 1015.6 |
| 20260905232004 | 82 | 155 | 7.0 | 11.3 | 0.00 | 0.16 | 0.16 | 72 | 1015.5 |
| 20260905231004 | 82 | 156 | 6.1 | 11.3 | 0.00 | 0.16 | 0.16 | 72 | 1015.5 |
| 20260905225004 | 83 | 158 | 7.8 | 13.0 | 0.00 | 0.16 | 0.16 | 69 | 1015.3 |
| 20260905224004 | 83 | 165 | 7.0 | 11.3 | 0.00 | 0.16 | 0.16 | 69 | 1015.3 |
| 20260905223005 | 83 | 143 | 7.8 | 13.0 | 0.00 | 0.16 | 0.16 | 68 | 1015.4 |
| 20260905222005 | 83 | 144 | 10.4 | 15.6 | 0.00 | 0.16 | 0.16 | 66 | 1015.2 |
| 20260905221004 | 83 | 145 | 7.8 | 14.8 | 0.00 | 0.16 | 0.16 | 67 | 1015.0 |
| 20260905220004 | 83 | 149 | 9.6 | 14.8 | 0.00 | 0.16 | 0.16 | 66 | 1015.0 |
| 20260905214004 | 84 | 152 | 7.8 | 15.6 | 0.00 | 0.16 | 0.16 | 67 | 1014.9 |
| 20260905213004 | 84 | 140 | 7.8 | 13.0 | 0.00 | 0.16 | 0.16 | 66 | 1014.9 |
| 20260905212004 | 83 | 145 | 7.0 | 13.0 | 0.00 | 0.16 | 0.16 | 67 | 1014.9 |
| 20260905211004 | 83 | 147 | 7.8 | 13.0 | 0.00 | 0.16 | 0.16 | 68 | 1014.8 |
| 20260905210004 | 83 | 139 | 7.8 | 12.2 | 0.00 | 0.16 | 0.16 | 71 | 1014.7 |
| 20260905205004 | 82 | 149 | 8.7 | 13.0 | 0.00 | 0.16 | 0.16 | 72 | 1014.6 |
| 20260905204004 | 81 | 132 | 6.1 | 10.4 | 0.00 | 0.16 | 0.16 | 72 | 1014.7 |
| 20260905202005 | 81 | 144 | 6.1 | 13.0 | 0.00 | 0.16 | 0.16 | 70 | 1014.7 |
| 20260905201004 | 81 | 129 | 6.1 | 10.4 | 0.00 | 0.16 | 0.16 | 73 | 1014.6 |
| 20260905200005 | 81 | 140 | 7.0 | 17.4 | 0.00 | 0.16 | 0.16 | 73 | 1014.5 |
| 20260905195004 | 82 | 149 | 10.4 | 21.7 | 0.00 | 0.16 | 0.16 | 75 | 1014.7 |
| 20260905194005 | 84 | 144 | 8.7 | 14.8 | 0.00 | 0.16 | 0.16 | 67 | 1014.5 |
| 20260905193005 | 84 | 132 | 8.7 | 12.2 | 0.00 | 0.16 | 0.16 | 66 | 1014.6 |
| 20260905192004 | 84 | 131 | 5.2 | 8.7 | 0.00 | 0.16 | 0.16 | 67 | 1014.3 |
| 20260905191004 | 84 | 146 | 4.3 | 7.0 | 0.00 | 0.16 | 0.16 | 63 | 1014.6 |
| 20260905190005 | 84 | 131 | 1.7 | 6.1 | 0.00 | 0.16 | 0.16 | 62 | 1014.7 |
| 20260905185004 | 84 | 170 | 2.6 | 7.0 | 0.00 | 0.16 | 0.16 | 63 | 1014.8 |